sensor_id;sensor_type;location;lat;lon;timestamp;temperature;humidity
28761;DHT22;15917;50.014;8.352;2022-08-05T00:01:30;27.10;93.20
28761;DHT22;15917;50.014;8.352;2022-08-05T00:03:56;27.10;93.50
28761;DHT22;15917;50.014;8.352;2022-08-05T00:06:21;27.00;93.60
28761;DHT22;15917;50.014;8.352;2022-08-05T00:08:47;27.00;93.70
28761;DHT22;15917;50.014;8.352;2022-08-05T00:11:14;27.00;93.80
28761;DHT22;15917;50.014;8.352;2022-08-05T00:13:42;26.90;93.90
28761;DHT22;15917;50.014;8.352;2022-08-05T00:16:10;26.90;94.00
28761;DHT22;15917;50.014;8.352;2022-08-05T00:18:36;26.90;94.60
28761;DHT22;15917;50.014;8.352;2022-08-05T00:21:02;26.80;95.00
28761;DHT22;15917;50.014;8.352;2022-08-05T00:23:28;26.70;95.30
28761;DHT22;15917;50.014;8.352;2022-08-05T00:25:53;26.60;95.50
28761;DHT22;15917;50.014;8.352;2022-08-05T00:28:19;26.60;95.70
28761;DHT22;15917;50.014;8.352;2022-08-05T00:30:45;26.60;96.00
28761;DHT22;15917;50.014;8.352;2022-08-05T00:33:11;26.60;96.50
28761;DHT22;15917;50.014;8.352;2022-08-05T00:35:37;26.60;96.70
28761;DHT22;15917;50.014;8.352;2022-08-05T00:38:02;26.40;97.20
28761;DHT22;15917;50.014;8.352;2022-08-05T00:40:28;26.40;97.50
28761;DHT22;15917;50.014;8.352;2022-08-05T00:42:59;26.20;97.50
28761;DHT22;15917;50.014;8.352;2022-08-05T00:45:25;26.20;97.50
28761;DHT22;15917;50.014;8.352;2022-08-05T00:47:51;26.30;97.20
28761;DHT22;15917;50.014;8.352;2022-08-05T00:50:17;26.20;97.60
28761;DHT22;15917;50.014;8.352;2022-08-05T00:52:42;26.20;97.40
28761;DHT22;15917;50.014;8.352;2022-08-05T00:55:08;26.20;97.40
28761;DHT22;15917;50.014;8.352;2022-08-05T00:57:34;26.20;97.60
28761;DHT22;15917;50.014;8.352;2022-08-05T00:59:59;26.10;98.20
28761;DHT22;15917;50.014;8.352;2022-08-05T01:02:25;26.10;98.30
28761;DHT22;15917;50.014;8.352;2022-08-05T01:04:51;26.00;98.10
28761;DHT22;15917;50.014;8.352;2022-08-05T01:07:16;26.10;97.80
28761;DHT22;15917;50.014;8.352;2022-08-05T01:09:42;26.00;98.30
28761;DHT22;15917;50.014;8.352;2022-08-05T01:12:11;25.90;99.10
28761;DHT22;15917;50.014;8.352;2022-08-05T01:15:02;25.90;99.60
28761;DHT22;15917;50.014;8.352;2022-08-05T01:17:34;25.90;99.90
28761;DHT22;15917;50.014;8.352;2022-08-05T01:20:25;25.90;99.90
28761;DHT22;15917;50.014;8.352;2022-08-05T01:26:02;25.80;99.90
28761;DHT22;15917;50.014;8.352;2022-08-05T01:28:41;25.80;99.90
28761;DHT22;15917;50.014;8.352;2022-08-05T01:31:19;25.70;99.90
28761;DHT22;15917;50.014;8.352;2022-08-05T01:33:52;25.70;99.90
28761;DHT22;15917;50.014;8.352;2022-08-05T01:36:19;25.60;99.90
28761;DHT22;15917;50.014;8.352;2022-08-05T01:38:47;25.50;99.90
28761;DHT22;15917;50.014;8.352;2022-08-05T01:41:15;25.50;99.90
28761;DHT22;15917;50.014;8.352;2022-08-05T01:43:42;25.50;99.90
28761;DHT22;15917;50.014;8.352;2022-08-05T01:46:11;25.40;99.90
28761;DHT22;15917;50.014;8.352;2022-08-05T01:48:38;25.30;99.90
28761;DHT22;15917;50.014;8.352;2022-08-05T01:51:04;25.30;99.90
28761;DHT22;15917;50.014;8.352;2022-08-05T01:53:31;25.30;99.90
28761;DHT22;15917;50.014;8.352;2022-08-05T01:56:00;25.30;99.90
28761;DHT22;15917;50.014;8.352;2022-08-05T01:58:26;25.20;99.90
28761;DHT22;15917;50.014;8.352;2022-08-05T02:00:56;25.20;99.90
28761;DHT22;15917;50.014;8.352;2022-08-05T02:03:28;25.10;99.90
28761;DHT22;15917;50.014;8.352;2022-08-05T02:05:56;25.00;99.90
28761;DHT22;15917;50.014;8.352;2022-08-05T02:08:22;25.00;99.90
28761;DHT22;15917;50.014;8.352;2022-08-05T02:10:50;24.90;99.90
28761;DHT22;15917;50.014;8.352;2022-08-05T02:13:26;25.00;99.90
28761;DHT22;15917;50.014;8.352;2022-08-05T02:16:06;25.00;99.90
28761;DHT22;15917;50.014;8.352;2022-08-05T02:18:43;25.00;99.90
28761;DHT22;15917;50.014;8.352;2022-08-05T02:21:15;24.90;99.90
28761;DHT22;15917;50.014;8.352;2022-08-05T02:23:45;24.70;99.90
28761;DHT22;15917;50.014;8.352;2022-08-05T02:26:17;24.50;99.90
28761;DHT22;15917;50.014;8.352;2022-08-05T02:28:45;24.40;99.90
28761;DHT22;15917;50.014;8.352;2022-08-05T02:31:20;24.40;99.90
28761;DHT22;15917;50.014;8.352;2022-08-05T02:33:50;24.60;99.90
28761;DHT22;15917;50.014;8.352;2022-08-05T02:36:19;24.60;99.90
28761;DHT22;15917;50.014;8.352;2022-08-05T02:38:48;24.70;99.90
28761;DHT22;15917;50.014;8.352;2022-08-05T02:41:15;24.60;99.90
28761;DHT22;15917;50.014;8.352;2022-08-05T02:43:42;24.50;99.90
28761;DHT22;15917;50.014;8.352;2022-08-05T02:46:13;24.40;99.90
28761;DHT22;15917;50.014;8.352;2022-08-05T02:48:39;24.40;99.90
28761;DHT22;15917;50.014;8.352;2022-08-05T02:51:05;24.40;99.90
28761;DHT22;15917;50.014;8.352;2022-08-05T02:53:32;24.50;99.90
28761;DHT22;15917;50.014;8.352;2022-08-05T02:55:58;24.60;99.90
28761;DHT22;15917;50.014;8.352;2022-08-05T02:58:25;24.60;99.90
28761;DHT22;15917;50.014;8.352;2022-08-05T03:00:55;24.60;99.90
28761;DHT22;15917;50.014;8.352;2022-08-05T03:03:22;24.70;99.90
28761;DHT22;15917;50.014;8.352;2022-08-05T03:05:49;24.70;99.90
28761;DHT22;15917;50.014;8.352;2022-08-05T03:08:15;24.70;99.90
28761;DHT22;15917;50.014;8.352;2022-08-05T03:10:42;24.70;99.90
28761;DHT22;15917;50.014;8.352;2022-08-05T03:13:13;24.70;99.90
28761;DHT22;15917;50.014;8.352;2022-08-05T03:15:43;24.60;99.90
28761;DHT22;15917;50.014;8.352;2022-08-05T03:18:10;24.50;99.90
28761;DHT22;15917;50.014;8.352;2022-08-05T03:20:35;24.60;99.90
28761;DHT22;15917;50.014;8.352;2022-08-05T03:23:03;24.50;99.90
28761;DHT22;15917;50.014;8.352;2022-08-05T03:25:29;24.50;99.90
28761;DHT22;15917;50.014;8.352;2022-08-05T03:27:56;24.40;99.90
28761;DHT22;15917;50.014;8.352;2022-08-05T03:30:22;24.40;99.90
28761;DHT22;15917;50.014;8.352;2022-08-05T03:32:49;24.40;99.90
28761;DHT22;15917;50.014;8.352;2022-08-05T03:35:15;24.30;99.90
28761;DHT22;15917;50.014;8.352;2022-08-05T03:37:41;24.30;99.90
28761;DHT22;15917;50.014;8.352;2022-08-05T03:40:07;24.20;99.90
28761;DHT22;15917;50.014;8.352;2022-08-05T03:42:34;24.20;99.90
28761;DHT22;15917;50.014;8.352;2022-08-05T03:45:00;24.20;99.90
28761;DHT22;15917;50.014;8.352;2022-08-05T03:47:26;24.10;99.90
28761;DHT22;15917;50.014;8.352;2022-08-05T03:49:52;23.90;99.90
28761;DHT22;15917;50.014;8.352;2022-08-05T03:52:22;23.90;99.90
28761;DHT22;15917;50.014;8.352;2022-08-05T03:54:58;23.70;99.90
28761;DHT22;15917;50.014;8.352;2022-08-05T03:57:28;23.70;99.90
28761;DHT22;15917;50.014;8.352;2022-08-05T04:00:00;23.70;99.90
28761;DHT22;15917;50.014;8.352;2022-08-05T04:02:29;23.70;99.90
28761;DHT22;15917;50.014;8.352;2022-08-05T04:04:57;23.70;99.90
28761;DHT22;15917;50.014;8.352;2022-08-05T04:07:24;23.70;99.90
28761;DHT22;15917;50.014;8.352;2022-08-05T04:09:50;23.70;99.90
28761;DHT22;15917;50.014;8.352;2022-08-05T04:12:17;23.80;99.90
28761;DHT22;15917;50.014;8.352;2022-08-05T04:14:42;23.80;99.90
28761;DHT22;15917;50.014;8.352;2022-08-05T04:17:09;23.90;99.90
28761;DHT22;15917;50.014;8.352;2022-08-05T04:19:47;24.00;99.90
28761;DHT22;15917;50.014;8.352;2022-08-05T04:22:13;24.00;99.90
28761;DHT22;15917;50.014;8.352;2022-08-05T04:24:45;24.10;99.90
28761;DHT22;15917;50.014;8.352;2022-08-05T04:27:12;24.10;99.90
28761;DHT22;15917;50.014;8.352;2022-08-05T04:29:38;24.10;99.90
28761;DHT22;15917;50.014;8.352;2022-08-05T04:32:05;24.10;99.90
28761;DHT22;15917;50.014;8.352;2022-08-05T04:34:31;24.10;99.90
28761;DHT22;15917;50.014;8.352;2022-08-05T04:36:56;24.20;99.90
28761;DHT22;15917;50.014;8.352;2022-08-05T04:39:22;24.30;99.90
28761;DHT22;15917;50.014;8.352;2022-08-05T04:41:48;24.40;99.90
28761;DHT22;15917;50.014;8.352;2022-08-05T04:44:14;24.50;99.90
28761;DHT22;15917;50.014;8.352;2022-08-05T04:46:40;24.50;99.90
28761;DHT22;15917;50.014;8.352;2022-08-05T04:49:07;24.60;99.90
28761;DHT22;15917;50.014;8.352;2022-08-05T04:51:33;24.60;99.90
28761;DHT22;15917;50.014;8.352;2022-08-05T04:53:59;24.70;99.90
28761;DHT22;15917;50.014;8.352;2022-08-05T04:56:25;24.70;99.90
28761;DHT22;15917;50.014;8.352;2022-08-05T04:58:51;24.60;99.90
28761;DHT22;15917;50.014;8.352;2022-08-05T05:01:17;24.70;99.90
28761;DHT22;15917;50.014;8.352;2022-08-05T05:03:43;24.60;99.90
28761;DHT22;15917;50.014;8.352;2022-08-05T05:06:12;24.50;99.90
28761;DHT22;15917;50.014;8.352;2022-08-05T05:08:38;24.50;99.90
28761;DHT22;15917;50.014;8.352;2022-08-05T05:11:05;24.50;99.90
28761;DHT22;15917;50.014;8.352;2022-08-05T05:13:31;24.40;99.90
28761;DHT22;15917;50.014;8.352;2022-08-05T05:15:57;24.50;99.90
28761;DHT22;15917;50.014;8.352;2022-08-05T05:18:23;24.50;99.90
28761;DHT22;15917;50.014;8.352;2022-08-05T05:20:49;24.60;99.90
28761;DHT22;15917;50.014;8.352;2022-08-05T05:23:15;24.60;99.90
28761;DHT22;15917;50.014;8.352;2022-08-05T05:25:42;24.60;99.90
28761;DHT22;15917;50.014;8.352;2022-08-05T05:28:11;24.60;99.90
28761;DHT22;15917;50.014;8.352;2022-08-05T05:30:38;24.60;99.90
28761;DHT22;15917;50.014;8.352;2022-08-05T05:33:05;24.50;99.90
28761;DHT22;15917;50.014;8.352;2022-08-05T05:35:31;24.40;99.90
28761;DHT22;15917;50.014;8.352;2022-08-05T05:37:59;24.30;99.90
28761;DHT22;15917;50.014;8.352;2022-08-05T05:40:26;24.20;99.90
28761;DHT22;15917;50.014;8.352;2022-08-05T05:42:52;24.00;99.90
28761;DHT22;15917;50.014;8.352;2022-08-05T05:45:19;24.00;99.90
28761;DHT22;15917;50.014;8.352;2022-08-05T05:47:45;24.10;99.90
28761;DHT22;15917;50.014;8.352;2022-08-05T05:50:13;24.00;99.90
28761;DHT22;15917;50.014;8.352;2022-08-05T05:52:39;23.90;99.90
28761;DHT22;15917;50.014;8.352;2022-08-05T05:55:07;23.90;99.90
28761;DHT22;15917;50.014;8.352;2022-08-05T05:57:34;23.90;99.90
28761;DHT22;15917;50.014;8.352;2022-08-05T06:00:00;23.90;99.90
28761;DHT22;15917;50.014;8.352;2022-08-05T06:02:25;23.90;99.90
28761;DHT22;15917;50.014;8.352;2022-08-05T06:04:51;23.90;99.90
28761;DHT22;15917;50.014;8.352;2022-08-05T06:07:17;24.00;99.90
28761;DHT22;15917;50.014;8.352;2022-08-05T06:09:43;24.00;99.90
28761;DHT22;15917;50.014;8.352;2022-08-05T06:12:08;23.90;99.90
28761;DHT22;15917;50.014;8.352;2022-08-05T06:14:34;23.90;99.90
28761;DHT22;15917;50.014;8.352;2022-08-05T06:17:00;23.90;99.90
28761;DHT22;15917;50.014;8.352;2022-08-05T06:19:26;23.90;99.90
28761;DHT22;15917;50.014;8.352;2022-08-05T06:21:52;23.80;99.90
28761;DHT22;15917;50.014;8.352;2022-08-05T06:24:17;23.80;99.90
28761;DHT22;15917;50.014;8.352;2022-08-05T06:26:44;23.70;99.90
28761;DHT22;15917;50.014;8.352;2022-08-05T06:29:10;23.70;99.90
28761;DHT22;15917;50.014;8.352;2022-08-05T06:31:36;23.70;99.90
28761;DHT22;15917;50.014;8.352;2022-08-05T06:34:02;23.80;99.90
28761;DHT22;15917;50.014;8.352;2022-08-05T06:36:28;23.70;99.90
28761;DHT22;15917;50.014;8.352;2022-08-05T06:38:54;23.70;99.90
28761;DHT22;15917;50.014;8.352;2022-08-05T06:41:20;23.60;99.90
28761;DHT22;15917;50.014;8.352;2022-08-05T06:43:46;23.70;99.90
28761;DHT22;15917;50.014;8.352;2022-08-05T06:46:12;23.70;99.90
28761;DHT22;15917;50.014;8.352;2022-08-05T06:48:38;23.80;99.90
28761;DHT22;15917;50.014;8.352;2022-08-05T06:51:04;23.90;99.90
28761;DHT22;15917;50.014;8.352;2022-08-05T06:53:30;23.90;99.90
28761;DHT22;15917;50.014;8.352;2022-08-05T06:56:00;24.00;99.90
28761;DHT22;15917;50.014;8.352;2022-08-05T06:58:28;24.00;99.90
28761;DHT22;15917;50.014;8.352;2022-08-05T07:00:54;24.00;99.90
28761;DHT22;15917;50.014;8.352;2022-08-05T07:03:19;24.00;99.90
28761;DHT22;15917;50.014;8.352;2022-08-05T07:05:45;24.00;99.90
28761;DHT22;15917;50.014;8.352;2022-08-05T07:08:10;23.90;99.90
28761;DHT22;15917;50.014;8.352;2022-08-05T07:10:36;23.90;99.90
28761;DHT22;15917;50.014;8.352;2022-08-05T07:13:02;23.70;99.90
28761;DHT22;15917;50.014;8.352;2022-08-05T07:15:46;23.70;99.90
28761;DHT22;15917;50.014;8.352;2022-08-05T07:18:30;23.70;99.90
28761;DHT22;15917;50.014;8.352;2022-08-05T07:20:56;23.70;99.90
28761;DHT22;15917;50.014;8.352;2022-08-05T07:23:22;23.70;99.90
28761;DHT22;15917;50.014;8.352;2022-08-05T07:25:47;23.60;99.90
28761;DHT22;15917;50.014;8.352;2022-08-05T07:28:13;23.60;99.90
28761;DHT22;15917;50.014;8.352;2022-08-05T07:30:38;23.50;99.90
28761;DHT22;15917;50.014;8.352;2022-08-05T07:33:06;23.50;99.90
28761;DHT22;15917;50.014;8.352;2022-08-05T07:35:32;23.50;99.90
28761;DHT22;15917;50.014;8.352;2022-08-05T07:37:57;23.50;99.90
28761;DHT22;15917;50.014;8.352;2022-08-05T07:40:23;23.60;99.90
28761;DHT22;15917;50.014;8.352;2022-08-05T07:42:49;23.60;99.90
28761;DHT22;15917;50.014;8.352;2022-08-05T07:45:14;23.60;99.90
28761;DHT22;15917;50.014;8.352;2022-08-05T07:47:41;23.60;99.90
28761;DHT22;15917;50.014;8.352;2022-08-05T07:50:07;23.50;99.90
28761;DHT22;15917;50.014;8.352;2022-08-05T07:52:41;23.60;99.90
28761;DHT22;15917;50.014;8.352;2022-08-05T07:55:08;23.70;99.90
28761;DHT22;15917;50.014;8.352;2022-08-05T07:57:35;23.70;99.90
28761;DHT22;15917;50.014;8.352;2022-08-05T08:00:00;23.80;99.90
28761;DHT22;15917;50.014;8.352;2022-08-05T08:02:28;23.90;99.90
28761;DHT22;15917;50.014;8.352;2022-08-05T08:04:54;24.00;99.90
28761;DHT22;15917;50.014;8.352;2022-08-05T08:07:20;24.30;99.90
28761;DHT22;15917;50.014;8.352;2022-08-05T08:09:47;24.20;99.90
28761;DHT22;15917;50.014;8.352;2022-08-05T08:12:13;24.40;99.90
28761;DHT22;15917;50.014;8.352;2022-08-05T08:14:39;24.50;99.90
28761;DHT22;15917;50.014;8.352;2022-08-05T08:17:05;24.50;99.90
28761;DHT22;15917;50.014;8.352;2022-08-05T08:19:36;24.40;99.90
28761;DHT22;15917;50.014;8.352;2022-08-05T08:22:02;24.40;99.90
28761;DHT22;15917;50.014;8.352;2022-08-05T08:24:29;24.30;99.90
28761;DHT22;15917;50.014;8.352;2022-08-05T08:26:56;24.30;99.90
28761;DHT22;15917;50.014;8.352;2022-08-05T08:29:22;24.40;99.90
28761;DHT22;15917;50.014;8.352;2022-08-05T08:31:48;24.40;99.90
28761;DHT22;15917;50.014;8.352;2022-08-05T08:34:14;24.50;99.90
28761;DHT22;15917;50.014;8.352;2022-08-05T08:36:40;24.70;99.90
28761;DHT22;15917;50.014;8.352;2022-08-05T08:39:06;24.80;99.90
28761;DHT22;15917;50.014;8.352;2022-08-05T08:41:33;24.90;99.90
28761;DHT22;15917;50.014;8.352;2022-08-05T08:44:00;25.00;99.90
28761;DHT22;15917;50.014;8.352;2022-08-05T08:46:28;25.20;99.90
28761;DHT22;15917;50.014;8.352;2022-08-05T08:48:56;25.20;99.90
28761;DHT22;15917;50.014;8.352;2022-08-05T08:51:23;25.40;99.90
28761;DHT22;15917;50.014;8.352;2022-08-05T08:53:49;25.50;99.90
28761;DHT22;15917;50.014;8.352;2022-08-05T08:56:15;25.50;99.90
28761;DHT22;15917;50.014;8.352;2022-08-05T08:58:41;25.40;99.90
28761;DHT22;15917;50.014;8.352;2022-08-05T09:01:07;25.40;99.90
28761;DHT22;15917;50.014;8.352;2022-08-05T09:03:35;25.40;99.90
28761;DHT22;15917;50.014;8.352;2022-08-05T09:06:00;25.30;99.90
28761;DHT22;15917;50.014;8.352;2022-08-05T09:08:26;25.30;99.90
28761;DHT22;15917;50.014;8.352;2022-08-05T09:10:52;25.30;99.90
28761;DHT22;15917;50.014;8.352;2022-08-05T09:13:18;25.30;99.90
28761;DHT22;15917;50.014;8.352;2022-08-05T09:15:45;25.30;99.90
28761;DHT22;15917;50.014;8.352;2022-08-05T09:18:11;25.40;99.90
28761;DHT22;15917;50.014;8.352;2022-08-05T09:20:37;25.60;99.90
28761;DHT22;15917;50.014;8.352;2022-08-05T09:23:18;25.60;99.90
28761;DHT22;15917;50.014;8.352;2022-08-05T09:25:47;25.70;99.90
28761;DHT22;15917;50.014;8.352;2022-08-05T09:28:17;25.60;99.90
28761;DHT22;15917;50.014;8.352;2022-08-05T09:30:57;25.70;99.90
28761;DHT22;15917;50.014;8.352;2022-08-05T09:33:25;25.70;99.90
28761;DHT22;15917;50.014;8.352;2022-08-05T09:36:02;25.70;99.90
28761;DHT22;15917;50.014;8.352;2022-08-05T09:38:28;25.70;99.90
28761;DHT22;15917;50.014;8.352;2022-08-05T09:41:02;25.60;99.90
28761;DHT22;15917;50.014;8.352;2022-08-05T09:43:34;25.60;99.90
28761;DHT22;15917;50.014;8.352;2022-08-05T09:46:01;25.60;99.90
28761;DHT22;15917;50.014;8.352;2022-08-05T09:48:32;25.70;99.90
28761;DHT22;15917;50.014;8.352;2022-08-05T09:51:01;25.70;99.90
28761;DHT22;15917;50.014;8.352;2022-08-05T09:53:28;25.80;99.90
28761;DHT22;15917;50.014;8.352;2022-08-05T09:56:03;25.80;99.90
28761;DHT22;15917;50.014;8.352;2022-08-05T09:58:28;25.90;99.90
28761;DHT22;15917;50.014;8.352;2022-08-05T10:00:57;25.90;99.90
28761;DHT22;15917;50.014;8.352;2022-08-05T10:03:23;25.80;99.90
28761;DHT22;15917;50.014;8.352;2022-08-05T10:06:07;25.90;99.90
28761;DHT22;15917;50.014;8.352;2022-08-05T10:08:34;25.90;99.90
28761;DHT22;15917;50.014;8.352;2022-08-05T10:11:05;26.00;99.90
28761;DHT22;15917;50.014;8.352;2022-08-05T10:13:37;26.00;99.90
28761;DHT22;15917;50.014;8.352;2022-08-05T10:16:04;26.00;99.90
28761;DHT22;15917;50.014;8.352;2022-08-05T10:18:32;26.00;99.90
28761;DHT22;15917;50.014;8.352;2022-08-05T10:21:03;26.20;99.90
28761;DHT22;15917;50.014;8.352;2022-08-05T10:23:30;26.30;99.90
28761;DHT22;15917;50.014;8.352;2022-08-05T10:25:58;26.40;99.90
28761;DHT22;15917;50.014;8.352;2022-08-05T10:28:25;26.50;99.90
28761;DHT22;15917;50.014;8.352;2022-08-05T10:30:52;26.60;99.90
28761;DHT22;15917;50.014;8.352;2022-08-05T10:33:19;26.60;99.90
28761;DHT22;15917;50.014;8.352;2022-08-05T10:35:45;26.60;99.90
28761;DHT22;15917;50.014;8.352;2022-08-05T10:38:12;26.60;99.90
28761;DHT22;15917;50.014;8.352;2022-08-05T10:46:11;26.80;99.90
28761;DHT22;15917;50.014;8.352;2022-08-05T10:48:48;26.80;99.90
28761;DHT22;15917;50.014;8.352;2022-08-05T10:51:19;26.70;99.90
28761;DHT22;15917;50.014;8.352;2022-08-05T10:53:56;26.60;99.90
28761;DHT22;15917;50.014;8.352;2022-08-05T10:56:24;26.60;99.90
28761;DHT22;15917;50.014;8.352;2022-08-05T11:01:35;26.80;99.90
28761;DHT22;15917;50.014;8.352;2022-08-05T11:04:10;26.90;99.90
28761;DHT22;15917;50.014;8.352;2022-08-05T11:09:51;26.60;99.90
28761;DHT22;15917;50.014;8.352;2022-08-05T11:12:41;26.50;99.90
28761;DHT22;15917;50.014;8.352;2022-08-05T11:15:21;26.40;99.90
28761;DHT22;15917;50.014;8.352;2022-08-05T11:18:04;26.30;99.90
28761;DHT22;15917;50.014;8.352;2022-08-05T11:20:37;26.20;99.90
28761;DHT22;15917;50.014;8.352;2022-08-05T11:23:35;26.20;99.90
28761;DHT22;15917;50.014;8.352;2022-08-05T11:33:28;26.70;99.90
28761;DHT22;15917;50.014;8.352;2022-08-05T11:36:19;27.10;99.90
28761;DHT22;15917;50.014;8.352;2022-08-05T11:41:27;27.60;99.90
28761;DHT22;15917;50.014;8.352;2022-08-05T11:46:30;28.00;99.90
28761;DHT22;15917;50.014;8.352;2022-08-05T11:48:56;28.10;99.90
28761;DHT22;15917;50.014;8.352;2022-08-05T11:51:25;28.40;99.90
28761;DHT22;15917;50.014;8.352;2022-08-05T11:53:52;28.60;99.90
28761;DHT22;15917;50.014;8.352;2022-08-05T11:56:18;28.70;99.90
28761;DHT22;15917;50.014;8.352;2022-08-05T11:58:45;28.90;99.90
28761;DHT22;15917;50.014;8.352;2022-08-05T12:01:14;29.10;99.90
28761;DHT22;15917;50.014;8.352;2022-08-05T12:03:51;29.20;99.90
28761;DHT22;15917;50.014;8.352;2022-08-05T12:06:23;29.20;99.90
28761;DHT22;15917;50.014;8.352;2022-08-05T12:08:51;29.10;99.90
28761;DHT22;15917;50.014;8.352;2022-08-05T12:11:19;29.00;99.90
28761;DHT22;15917;50.014;8.352;2022-08-05T12:14:02;29.20;99.90
28761;DHT22;15917;50.014;8.352;2022-08-05T12:16:32;29.30;99.90
28761;DHT22;15917;50.014;8.352;2022-08-05T12:18:58;29.40;99.90
28761;DHT22;15917;50.014;8.352;2022-08-05T12:21:31;29.60;99.90
28761;DHT22;15917;50.014;8.352;2022-08-05T12:24:06;29.70;99.90
28761;DHT22;15917;50.014;8.352;2022-08-05T12:26:41;29.80;99.90
28761;DHT22;15917;50.014;8.352;2022-08-05T12:29:30;29.50;99.90
28761;DHT22;15917;50.014;8.352;2022-08-05T12:31:59;29.40;99.90
28761;DHT22;15917;50.014;8.352;2022-08-05T12:34:27;29.10;99.90
28761;DHT22;15917;50.014;8.352;2022-08-05T12:36:55;28.80;99.90
28761;DHT22;15917;50.014;8.352;2022-08-05T12:39:23;28.60;99.90
28761;DHT22;15917;50.014;8.352;2022-08-05T12:41:49;28.50;99.90
28761;DHT22;15917;50.014;8.352;2022-08-05T12:44:16;28.40;99.90
28761;DHT22;15917;50.014;8.352;2022-08-05T12:46:51;28.50;99.90
28761;DHT22;15917;50.014;8.352;2022-08-05T12:49:17;28.60;99.90
28761;DHT22;15917;50.014;8.352;2022-08-05T12:54:22;28.40;99.90
28761;DHT22;15917;50.014;8.352;2022-08-05T12:56:52;28.30;99.90
28761;DHT22;15917;50.014;8.352;2022-08-05T12:59:21;28.20;99.90
28761;DHT22;15917;50.014;8.352;2022-08-05T13:01:57;28.20;99.90
28761;DHT22;15917;50.014;8.352;2022-08-05T13:04:38;28.20;99.90
28761;DHT22;15917;50.014;8.352;2022-08-05T13:07:15;28.20;99.90
28761;DHT22;15917;50.014;8.352;2022-08-05T13:09:42;28.10;99.90
28761;DHT22;15917;50.014;8.352;2022-08-05T13:12:14;28.10;99.90
28761;DHT22;15917;50.014;8.352;2022-08-05T13:14:45;28.10;99.90
28761;DHT22;15917;50.014;8.352;2022-08-05T13:17:22;28.10;99.90
28761;DHT22;15917;50.014;8.352;2022-08-05T13:19:58;27.90;99.90
28761;DHT22;15917;50.014;8.352;2022-08-05T13:22:25;27.90;99.90
28761;DHT22;15917;50.014;8.352;2022-08-05T13:24:51;27.80;99.90
28761;DHT22;15917;50.014;8.352;2022-08-05T13:27:26;27.60;99.90
28761;DHT22;15917;50.014;8.352;2022-08-05T13:29:52;27.50;99.90
28761;DHT22;15917;50.014;8.352;2022-08-05T13:32:18;27.30;99.90
28761;DHT22;15917;50.014;8.352;2022-08-05T13:34:43;27.20;99.90
28761;DHT22;15917;50.014;8.352;2022-08-05T13:37:09;27.10;99.90
28761;DHT22;15917;50.014;8.352;2022-08-05T13:39:34;26.90;99.90
28761;DHT22;15917;50.014;8.352;2022-08-05T13:42:00;26.90;99.90
28761;DHT22;15917;50.014;8.352;2022-08-05T13:44:26;26.70;99.90
28761;DHT22;15917;50.014;8.352;2022-08-05T13:46:51;26.50;99.90
28761;DHT22;15917;50.014;8.352;2022-08-05T13:49:17;26.40;99.90
28761;DHT22;15917;50.014;8.352;2022-08-05T13:51:42;26.30;99.90
28761;DHT22;15917;50.014;8.352;2022-08-05T13:54:08;26.50;99.90
28761;DHT22;15917;50.014;8.352;2022-08-05T13:56:34;26.50;99.90
28761;DHT22;15917;50.014;8.352;2022-08-05T13:59:00;26.40;99.90
28761;DHT22;15917;50.014;8.352;2022-08-05T14:01:25;26.40;99.90
28761;DHT22;15917;50.014;8.352;2022-08-05T14:03:51;26.30;99.90
28761;DHT22;15917;50.014;8.352;2022-08-05T14:06:36;26.40;99.90
28761;DHT22;15917;50.014;8.352;2022-08-05T14:09:02;26.60;99.90
28761;DHT22;15917;50.014;8.352;2022-08-05T14:11:28;26.70;99.90
28761;DHT22;15917;50.014;8.352;2022-08-05T14:13:54;26.80;99.90
28761;DHT22;15917;50.014;8.352;2022-08-05T14:16:20;26.90;99.90
28761;DHT22;15917;50.014;8.352;2022-08-05T14:18:46;27.10;99.90
28761;DHT22;15917;50.014;8.352;2022-08-05T14:21:12;26.90;99.90
28761;DHT22;15917;50.014;8.352;2022-08-05T14:23:38;26.40;99.90
28761;DHT22;15917;50.014;8.352;2022-08-05T14:26:03;26.20;99.90
28761;DHT22;15917;50.014;8.352;2022-08-05T14:28:29;26.00;99.90
28761;DHT22;15917;50.014;8.352;2022-08-05T14:30:58;26.00;99.90
28761;DHT22;15917;50.014;8.352;2022-08-05T14:33:24;25.90;99.90
28761;DHT22;15917;50.014;8.352;2022-08-05T14:35:50;25.70;99.90
28761;DHT22;15917;50.014;8.352;2022-08-05T14:38:16;25.50;99.90
28761;DHT22;15917;50.014;8.352;2022-08-05T14:40:41;25.30;99.90
28761;DHT22;15917;50.014;8.352;2022-08-05T14:43:07;25.30;99.90
28761;DHT22;15917;50.014;8.352;2022-08-05T14:45:33;25.20;99.90
28761;DHT22;15917;50.014;8.352;2022-08-05T14:47:58;25.10;99.90
28761;DHT22;15917;50.014;8.352;2022-08-05T14:50:24;25.10;99.90
28761;DHT22;15917;50.014;8.352;2022-08-05T14:52:50;25.00;99.90
28761;DHT22;15917;50.014;8.352;2022-08-05T14:55:15;24.90;99.90
28761;DHT22;15917;50.014;8.352;2022-08-05T14:57:41;24.80;99.90
28761;DHT22;15917;50.014;8.352;2022-08-05T15:00:07;24.80;99.90
28761;DHT22;15917;50.014;8.352;2022-08-05T15:02:33;24.80;99.90
28761;DHT22;15917;50.014;8.352;2022-08-05T15:04:59;24.90;99.90
28761;DHT22;15917;50.014;8.352;2022-08-05T15:07:24;24.90;99.90
28761;DHT22;15917;50.014;8.352;2022-08-05T15:09:50;24.90;99.90
28761;DHT22;15917;50.014;8.352;2022-08-05T15:12:16;25.00;99.90
28761;DHT22;15917;50.014;8.352;2022-08-05T15:14:41;25.00;99.90
28761;DHT22;15917;50.014;8.352;2022-08-05T15:17:07;25.10;99.90
28761;DHT22;15917;50.014;8.352;2022-08-05T15:19:33;25.10;99.90
28761;DHT22;15917;50.014;8.352;2022-08-05T15:21:59;25.00;99.90
28761;DHT22;15917;50.014;8.352;2022-08-05T15:24:28;24.90;99.90
28761;DHT22;15917;50.014;8.352;2022-08-05T15:26:54;24.80;99.90
28761;DHT22;15917;50.014;8.352;2022-08-05T15:29:19;24.70;99.90
28761;DHT22;15917;50.014;8.352;2022-08-05T15:31:45;24.70;99.90
28761;DHT22;15917;50.014;8.352;2022-08-05T15:34:11;24.70;99.90
28761;DHT22;15917;50.014;8.352;2022-08-05T15:36:37;24.80;99.90
28761;DHT22;15917;50.014;8.352;2022-08-05T15:39:02;24.90;99.90
28761;DHT22;15917;50.014;8.352;2022-08-05T15:41:28;24.90;99.90
28761;DHT22;15917;50.014;8.352;2022-08-05T15:43:54;24.90;99.90
28761;DHT22;15917;50.014;8.352;2022-08-05T15:46:19;24.90;99.90
28761;DHT22;15917;50.014;8.352;2022-08-05T15:48:45;24.90;99.90
28761;DHT22;15917;50.014;8.352;2022-08-05T15:51:11;24.90;99.90
28761;DHT22;15917;50.014;8.352;2022-08-05T15:53:36;24.90;99.90
28761;DHT22;15917;50.014;8.352;2022-08-05T15:56:04;24.70;99.90
28761;DHT22;15917;50.014;8.352;2022-08-05T15:58:30;24.80;99.90
28761;DHT22;15917;50.014;8.352;2022-08-05T16:00:58;24.70;99.90
28761;DHT22;15917;50.014;8.352;2022-08-05T16:03:24;24.80;99.90
28761;DHT22;15917;50.014;8.352;2022-08-05T16:05:51;24.70;99.90